Time;durP1;ratioP1;P1;durP2;ratioP2;P2;SDS_P1;SDS_P2;PMS_P1;PMS_P2;Temp;Humidity;BMP_temperature;BMP_pressure;BME280_temperature;BME280_humidity;BME280_pressure;Samples;Min_cycle;Max_cycle;Signal;HPM_P1;HPM_P2
2023/01/24 00:00:57;;;;;;;10.60;7.23;;;3.30;99.90;;;;;;5059009;28;20204;-80
2023/01/24 00:03:22;;;;;;;9.40;6.60;;;3.30;99.90;;;;;;5058975;28;20206;-81
2023/01/24 00:05:49;;;;;;;11.63;6.90;;;3.30;99.90;;;;;;5057826;28;20639;-80
2023/01/24 00:08:19;;;;;;;11.13;7.83;;;3.30;99.90;;;;;;5057619;28;20229;-80
2023/01/24 00:10:44;;;;;;;10.00;6.97;;;3.30;99.90;;;;;;5057723;28;20206;-81
2023/01/24 00:13:12;;;;;;;12.00;8.10;;;3.30;99.90;;;;;;5059258;28;20176;-80
2023/01/24 00:15:37;;;;;;;9.83;6.93;;;3.30;99.90;;;;;;5059142;28;20172;-80
2023/01/24 00:18:03;;;;;;;10.97;7.27;;;3.30;99.90;;;;;;5057831;28;20180;-80
2023/01/24 00:20:29;;;;;;;10.03;7.10;;;3.30;99.90;;;;;;5057489;28;20325;-81
2023/01/24 00:22:54;;;;;;;10.23;7.30;;;3.30;99.90;;;;;;5059245;28;20577;-80
2023/01/24 00:25:20;;;;;;;8.47;6.73;;;3.30;99.90;;;;;;5058441;28;20175;-81
2023/01/24 00:27:45;;;;;;;10.80;7.80;;;3.20;99.90;;;;;;5057544;28;20180;-81
2023/01/24 00:30:11;;;;;;;10.43;7.13;;;3.20;99.90;;;;;;5058164;28;20180;-81
2023/01/24 00:32:37;;;;;;;10.17;7.33;;;3.20;99.90;;;;;;5057520;28;20640;-81
2023/01/24 00:35:02;;;;;;;10.30;7.60;;;3.20;99.90;;;;;;5058346;28;20180;-81
2023/01/24 00:37:28;;;;;;;10.63;7.43;;;3.20;99.90;;;;;;5057731;28;20180;-81
2023/01/24 00:39:54;;;;;;;11.47;7.67;;;3.60;99.90;;;;;;5057427;28;20179;-81
2023/01/24 00:42:19;;;;;;;10.23;6.97;;;3.20;99.90;;;;;;5059269;28;20199;-81
2023/01/24 00:44:45;;;;;;;11.93;7.67;;;3.20;99.90;;;;;;5057650;28;20180;-81
2023/01/24 00:47:10;;;;;;;9.07;7.20;;;3.20;99.90;;;;;;5058948;28;20167;-81
2023/01/24 00:49:36;;;;;;;10.40;7.50;;;3.20;99.90;;;;;;5057469;28;20222;-82
2023/01/24 00:52:01;;;;;;;12.23;7.87;;;3.20;99.90;;;;;;5057551;28;20211;-81
2023/01/24 00:54:27;;;;;;;11.40;8.07;;;3.20;99.90;;;;;;5059140;28;20178;-80
2023/01/24 00:56:52;;;;;;;10.83;8.00;;;3.20;99.90;;;;;;5059246;28;20180;-80
2023/01/24 00:59:18;;;;;;;11.13;8.00;;;3.20;99.90;;;;;;5057311;28;20178;-80
2023/01/24 01:01:44;;;;;;;12.33;7.87;;;3.20;99.90;;;;;;5058905;28;20199;-81
2023/01/24 01:04:10;;;;;;;11.63;7.63;;;3.20;99.90;;;;;;5057069;28;20714;-80
2023/01/24 01:06:35;;;;;;;11.40;7.50;;;3.20;99.90;;;;;;5057772;28;20175;-81
2023/01/24 01:09:01;;;;;;;10.43;6.90;;;3.20;99.90;;;;;;5057176;28;20180;-80
2023/01/24 01:11:26;;;;;;;10.50;7.27;;;3.20;99.90;;;;;;5057196;28;20589;-80
2023/01/24 01:13:55;;;;;;;8.30;6.63;;;3.20;99.90;;;;;;5056969;28;20659;-80
2023/01/24 01:16:20;;;;;;;11.43;7.57;;;3.20;99.90;;;;;;5057423;28;20176;-81
2023/01/24 01:18:47;;;;;;;8.60;6.07;;;3.10;99.90;;;;;;5057376;28;20182;-82
2023/01/24 01:21:16;;;;;;;10.53;7.13;;;3.20;99.90;;;;;;5058612;28;20640;-80
2023/01/24 01:23:42;;;;;;;9.97;7.13;;;3.20;99.90;;;;;;5057268;28;20187;-80
2023/01/24 01:26:12;;;;;;;8.40;6.10;;;3.20;99.90;;;;;;5058547;28;20183;-80
2023/01/24 01:28:38;;;;;;;12.17;8.00;;;3.20;99.90;;;;;;5057238;28;20267;-80
2023/01/24 01:31:03;;;;;;;9.37;7.27;;;3.20;99.90;;;;;;5057927;28;20235;-80
2023/01/24 01:33:29;;;;;;;9.13;6.70;;;3.20;99.90;;;;;;5058215;28;20285;-80
2023/01/24 01:35:55;;;;;;;9.33;6.93;;;3.20;99.90;;;;;;5057526;28;20207;-82
2023/01/24 01:38:21;;;;;;;10.70;7.37;;;3.10;99.90;;;;;;5057308;28;20647;-80
2023/01/24 01:40:46;;;;;;;8.73;6.50;;;3.20;99.90;;;;;;5058426;28;20252;-80
2023/01/24 01:43:15;;;;;;;11.70;6.60;;;3.20;99.90;;;;;;5058492;28;20187;-80
2023/01/24 01:45:44;;;;;;;10.70;6.27;;;3.10;99.90;;;;;;5056842;28;20183;-80
2023/01/24 01:48:34;;;;;;;9.60;6.57;;;3.10;99.90;;;;;;5058821;28;20191;-80
2023/01/24 01:51:02;;;;;;;9.43;6.40;;;3.10;99.90;;;;;;5056737;28;20210;-80
2023/01/24 01:53:33;;;;;;;8.03;5.90;;;3.20;99.90;;;;;;5058814;28;20178;-79
2023/01/24 01:56:09;;;;;;;8.87;6.17;;;3.20;99.90;;;;;;5057964;28;20186;-80
2023/01/24 01:58:35;;;;;;;9.50;7.13;;;3.20;99.90;;;;;;5065178;28;20164;-79
2023/01/24 02:01:01;;;;;;;8.57;5.87;;;3.10;99.90;;;;;;5077168;28;20199;-80
2023/01/24 02:03:39;;;;;;;8.77;6.20;;;3.20;99.90;;;;;;5074524;28;20194;-80
2023/01/24 02:06:18;;;;;;;9.30;6.40;;;3.10;99.90;;;;;;5058932;28;20577;-80
2023/01/24 02:08:44;;;;;;;8.80;6.17;;;3.10;99.90;;;;;;5057155;28;20202;-80
2023/01/24 02:16:02;;;;;;;10.30;6.23;;;3.40;99.90;;;;;;5057797;28;20202;-80
2023/01/24 02:16:42;;;;;;;8.40;6.37;;;3.10;99.90;;;;;;5058749;28;20180;-80
2023/01/24 02:19:17;;;;;;;6.80;5.10;;;3.10;99.90;;;;;;5058355;28;20666;-80
2023/01/24 02:21:44;;;;;;;7.87;5.33;;;3.10;99.90;;;;;;5057684;28;20210;-80
2023/01/24 02:24:30;;;;;;;9.23;6.13;;;3.10;99.90;;;;;;5061476;28;20179;-80
2023/01/24 02:26:55;;;;;;;7.87;6.07;;;3.10;99.90;;;;;;5060772;28;20184;-80
2023/01/24 02:29:21;;;;;;;8.00;5.67;;;3.10;99.90;;;;;;5060157;28;20274;-81
2023/01/24 02:32:01;;;;;;;8.63;5.93;;;3.10;99.90;;;;;;5060669;28;20207;-80
2023/01/24 02:34:28;;;;;;;7.07;5.37;;;3.10;99.90;;;;;;5061938;28;20627;-79
2023/01/24 02:37:10;;;;;;;8.03;5.93;;;3.10;99.90;;;;;;5059800;28;20182;-80
2023/01/24 02:39:49;;;;;;;6.60;5.33;;;3.10;99.90;;;;;;5061758;28;20163;-81
2023/01/24 02:42:20;;;;;;;8.30;5.67;;;3.10;99.90;;;;;;5061281;28;20199;-80
2023/01/24 02:45:14;;;;;;;7.30;5.57;;;3.10;99.90;;;;;;5061301;28;20247;-80
2023/01/24 02:47:48;;;;;;;11.87;5.80;;;3.10;99.90;;;;;;5061695;28;20365;-80
2023/01/24 02:50:15;;;;;;;6.70;5.17;;;3.10;99.90;;;;;;5059212;28;20189;-80
2023/01/24 02:55:25;;;;;;;7.60;5.93;;;3.10;99.90;;;;;;5060994;28;20171;-80
2023/01/24 02:58:06;;;;;;;8.17;5.23;;;3.10;99.90;;;;;;5061453;28;20171;-80
2023/01/24 03:00:34;;;;;;;7.23;5.40;;;3.10;99.90;;;;;;5060999;28;20171;-80
2023/01/24 03:02:59;;;;;;;7.30;5.40;;;3.10;99.90;;;;;;5059854;28;20270;-80
2023/01/24 03:05:25;;;;;;;5.43;4.43;;;3.00;99.90;;;;;;5061031;28;20207;-80
2023/01/24 03:07:50;;;;;;;8.03;4.93;;;3.10;99.90;;;;;;5060939;28;20583;-80
2023/01/24 03:10:18;;;;;;;7.27;5.27;;;3.10;99.90;;;;;;5059378;28;20179;-80
2023/01/24 03:34:49;;;;;;;5.30;4.27;;;3.00;99.90;;;;;;5059412;28;20580;-80
2023/01/24 03:37:16;;;;;;;6.03;4.30;;;3.00;99.90;;;;;;5059124;28;20190;-80
2023/01/24 03:39:58;;;;;;;6.63;4.70;;;3.00;99.90;;;;;;5060667;28;20164;-80
2023/01/24 03:42:26;;;;;;;6.43;4.60;;;3.00;99.90;;;;;;5058229;28;20199;-81
2023/01/24 03:44:51;;;;;;;6.47;4.97;;;3.00;99.90;;;;;;5058779;28;20175;-81
2023/01/24 03:47:17;;;;;;;6.23;4.87;;;3.00;99.90;;;;;;5059051;28;20233;-81
2023/01/24 03:52:29;;;;;;;5.93;4.47;;;3.00;99.90;;;;;;5060309;28;20214;-80
2023/01/24 03:54:59;;;;;;;6.87;4.70;;;2.90;99.90;;;;;;5060350;28;20172;-81
2023/01/24 03:57:27;;;;;;;6.57;4.83;;;2.90;99.90;;;;;;5059334;28;20175;-81
2023/01/24 03:59:52;;;;;;;7.13;4.80;;;2.90;99.90;;;;;;5060077;28;20176;-81
2023/01/24 04:02:20;;;;;;;8.63;5.27;;;2.90;99.90;;;;;;5060223;28;20200;-81
2023/01/24 04:07:31;;;;;;;6.60;4.73;;;2.90;99.90;;;;;;5059551;28;20625;-80
2023/01/24 04:09:58;;;;;;;7.90;4.97;;;2.90;99.90;;;;;;5058826;28;20602;-81
2023/01/24 04:12:24;;;;;;;6.90;5.07;;;2.90;99.90;;;;;;5059350;28;20199;-81
2023/01/24 04:14:50;;;;;;;7.00;4.80;;;2.90;99.90;;;;;;5058124;28;20225;-81
2023/01/24 04:17:16;;;;;;;5.93;4.43;;;2.90;99.90;;;;;;5055731;28;20553;-82
2023/01/24 04:19:41;;;;;;;7.17;4.83;;;2.90;99.90;;;;;;5058130;28;20172;-80
2023/01/24 04:22:07;;;;;;;6.57;5.03;;;2.90;99.90;;;;;;5059051;28;20215;-81
2023/01/24 04:24:32;;;;;;;7.40;5.00;;;2.90;99.90;;;;;;5058271;28;20183;-81
2023/01/24 04:26:58;;;;;;;6.37;4.60;;;2.80;99.90;;;;;;5057792;28;20183;-82
2023/01/24 04:29:23;;;;;;;6.70;4.63;;;2.80;99.90;;;;;;5060145;28;20181;-81
2023/01/24 04:31:49;;;;;;;7.07;4.53;;;2.80;99.90;;;;;;5058106;28;20261;-80
2023/01/24 04:34:14;;;;;;;7.43;5.20;;;2.80;99.90;;;;;;5057818;28;20183;-81
2023/01/24 04:36:40;;;;;;;6.87;4.80;;;2.80;99.90;;;;;;5058996;28;20636;-81
2023/01/24 04:39:05;;;;;;;6.63;4.73;;;2.80;99.90;;;;;;5058807;28;20172;-82
2023/01/24 04:41:31;;;;;;;6.87;5.17;;;2.90;99.90;;;;;;5057720;28;20683;-82
2023/01/24 04:43:57;;;;;;;6.73;4.80;;;2.80;99.90;;;;;;5059843;28;20178;-82
2023/01/24 04:46:23;;;;;;;7.00;5.03;;;2.80;99.90;;;;;;5059492;28;20658;-81
2023/01/24 04:48:48;;;;;;;7.20;4.90;;;2.80;99.90;;;;;;5058824;28;20179;-81
2023/01/24 04:51:14;;;;;;;7.27;4.93;;;2.80;99.90;;;;;;5059454;28;20211;-81
2023/01/24 04:53:40;;;;;;;6.30;4.40;;;2.80;99.90;;;;;;5058904;28;20194;-82
2023/01/24 04:56:06;;;;;;;8.30;5.07;;;2.80;99.90;;;;;;5059678;28;20172;-81
2023/01/24 04:58:33;;;;;;;5.57;4.20;;;2.80;99.90;;;;;;5059057;28;20172;-82
2023/01/24 05:00:59;;;;;;;6.27;4.70;;;2.80;99.90;;;;;;5059835;28;20192;-82
2023/01/24 05:03:24;;;;;;;6.17;4.20;;;2.80;99.90;;;;;;5059784;28;20175;-79
2023/01/24 05:05:51;;;;;;;6.43;4.53;;;2.80;99.90;;;;;;5057837;28;20183;-80
2023/01/24 05:08:16;;;;;;;6.77;4.90;;;2.80;99.90;;;;;;5060295;28;20274;-80
2023/01/24 05:10:42;;;;;;;6.27;4.53;;;2.70;99.90;;;;;;5070530;28;20199;-80
2023/01/24 05:13:07;;;;;;;7.07;4.97;;;2.70;99.90;;;;;;5077921;28;20163;-80
2023/01/24 05:15:33;;;;;;;6.57;4.87;;;2.70;99.90;;;;;;5069983;28;20282;-80
2023/01/24 05:17:58;;;;;;;6.63;4.87;;;2.70;99.90;;;;;;5059321;28;20171;-80
2023/01/24 05:20:24;;;;;;;5.57;4.07;;;2.70;99.90;;;;;;5058853;28;20245;-80
2023/01/24 05:22:50;;;;;;;7.90;4.93;;;2.70;99.90;;;;;;5059255;28;20196;-81
2023/01/24 05:25:16;;;;;;;6.80;4.83;;;2.70;99.90;;;;;;5058825;28;20254;-80
2023/01/24 05:27:42;;;;;;;6.40;4.53;;;2.70;99.90;;;;;;5059037;28;20175;-80
2023/01/24 05:30:08;;;;;;;7.03;5.10;;;2.70;99.90;;;;;;5059577;28;20167;-80
2023/01/24 05:32:33;;;;;;;6.30;4.43;;;2.70;99.90;;;;;;5058539;28;20211;-81
2023/01/24 05:34:59;;;;;;;6.53;4.50;;;2.70;99.90;;;;;;5057701;28;20182;-80
2023/01/24 05:37:24;;;;;;;6.80;4.83;;;2.70;99.90;;;;;;5059154;28;20176;-80
2023/01/24 05:39:50;;;;;;;6.63;4.67;;;2.50;99.90;;;;;;5058730;28;20180;-80
2023/01/24 05:42:15;;;;;;;7.10;4.60;;;2.60;99.90;;;;;;5058637;28;20203;-79
2023/01/24 05:44:41;;;;;;;6.37;4.67;;;2.70;99.90;;;;;;5058567;28;20214;-80
2023/01/24 05:47:06;;;;;;;6.30;4.90;;;2.60;99.90;;;;;;5058093;28;20209;-80
2023/01/24 05:49:32;;;;;;;6.77;5.30;;;2.60;99.90;;;;;;5057612;28;20621;-81
2023/01/24 05:51:57;;;;;;;8.47;5.40;;;2.60;99.90;;;;;;5058094;28;20215;-80
2023/01/24 05:54:23;;;;;;;9.40;5.97;;;2.60;99.90;;;;;;5058314;28;20179;-80
2023/01/24 05:56:48;;;;;;;6.70;4.70;;;2.60;99.90;;;;;;5059270;28;20168;-80
2023/01/24 05:59:14;;;;;;;8.03;6.00;;;2.60;99.90;;;;;;5063457;28;20175;-80
2023/01/24 06:01:39;;;;;;;7.03;5.17;;;2.60;99.90;;;;;;5063580;28;20184;-80
2023/01/24 06:04:05;;;;;;;8.57;5.73;;;2.70;99.90;;;;;;5062394;28;20168;-80
2023/01/24 06:06:31;;;;;;;8.23;5.63;;;2.70;99.90;;;;;;5062649;28;20176;-81
2023/01/24 06:08:56;;;;;;;10.50;6.27;;;2.70;99.90;;;;;;5062565;28;20172;-80
2023/01/24 06:11:24;;;;;;;8.77;5.47;;;2.70;99.90;;;;;;5061831;28;20207;-81
2023/01/24 06:13:50;;;;;;;8.07;5.73;;;2.70;99.90;;;;;;5062029;28;20186;-81
2023/01/24 06:16:18;;;;;;;8.83;6.10;;;2.70;99.90;;;;;;5051804;28;20176;-80
2023/01/24 06:18:44;;;;;;;8.63;6.10;;;2.70;99.90;;;;;;5043575;28;20557;-82
2023/01/24 06:21:36;;;;;;;7.87;5.37;;;2.70;99.90;;;;;;5051951;28;20223;-81
2023/01/24 06:24:02;;;;;;;8.80;5.93;;;2.70;99.90;;;;;;5042999;28;20184;-81
2023/01/24 06:26:28;;;;;;;8.53;6.30;;;2.70;99.90;;;;;;5042335;28;20180;-81
2023/01/24 06:28:54;;;;;;;7.77;6.03;;;2.70;99.90;;;;;;5056687;28;20206;-80
2023/01/24 06:31:22;;;;;;;7.80;6.10;;;2.70;99.90;;;;;;5056432;28;20208;-80
2023/01/24 06:34:12;;;;;;;8.03;5.47;;;2.70;99.90;;;;;;5056980;28;20176;-80
2023/01/24 06:36:48;;;;;;;9.03;6.10;;;2.70;99.90;;;;;;5056459;28;20200;-80
2023/01/24 06:39:15;;;;;;;7.97;5.73;;;2.70;99.90;;;;;;5041520;28;20222;-81
2023/01/24 06:41:41;;;;;;;8.63;6.00;;;2.70;99.90;;;;;;5057420;28;20200;-80
2023/01/24 06:44:11;;;;;;;6.30;5.37;;;2.70;99.90;;;;;;5042786;28;20227;-81
2023/01/24 06:46:37;;;;;;;8.37;5.83;;;2.70;99.90;;;;;;5042602;28;20156;-81
2023/01/24 06:49:03;;;;;;;8.40;5.70;;;2.70;99.90;;;;;;5058006;28;20674;-81
2023/01/24 06:51:28;;;;;;;9.67;6.07;;;2.70;99.90;;;;;;5057845;28;20208;-81
2023/01/24 06:53:54;;;;;;;10.00;6.70;;;2.70;99.90;;;;;;5043456;28;20659;-80
2023/01/24 06:56:19;;;;;;;10.37;6.13;;;2.70;99.90;;;;;;5057632;28;20180;-80
2023/01/24 06:58:45;;;;;;;9.50;6.50;;;2.70;99.90;;;;;;5043281;28;20176;-80
2023/01/24 07:01:10;;;;;;;10.17;7.03;;;2.70;99.90;;;;;;5057809;28;20200;-80
2023/01/24 07:03:36;;;;;;;9.43;6.87;;;2.70;99.90;;;;;;5041537;28;20187;-80
2023/01/24 07:06:01;;;;;;;12.10;7.10;;;2.70;99.90;;;;;;5041166;28;20176;-80
2023/01/24 07:08:27;;;;;;;11.03;7.20;;;2.70;99.90;;;;;;5042296;28;20185;-81
2023/01/24 07:10:52;;;;;;;9.03;7.07;;;2.70;99.90;;;;;;5057530;28;20216;-81
2023/01/24 07:13:18;;;;;;;10.73;6.90;;;2.70;99.90;;;;;;5042270;28;20177;-80
2023/01/24 07:15:43;;;;;;;8.10;6.57;;;2.70;99.90;;;;;;5042265;28;20180;-80
2023/01/24 07:18:12;;;;;;;9.90;7.47;;;2.70;99.90;;;;;;5058007;28;20184;-80
2023/01/24 07:20:38;;;;;;;9.03;7.13;;;2.70;99.90;;;;;;5041197;28;20566;-80
2023/01/24 07:23:04;;;;;;;9.80;6.67;;;2.80;99.90;;;;;;5042225;28;20263;-80
2023/01/24 07:25:30;;;;;;;11.00;7.67;;;2.70;99.90;;;;;;5057681;28;20215;-80
2023/01/24 07:27:56;;;;;;;8.83;6.93;;;2.70;99.90;;;;;;5058535;28;20181;-80
2023/01/24 07:30:22;;;;;;;9.17;7.00;;;2.70;99.90;;;;;;5043555;28;20179;-81
2023/01/24 07:32:47;;;;;;;10.37;6.97;;;2.70;99.90;;;;;;5052954;28;20235;-80
2023/01/24 07:35:13;;;;;;;10.70;7.37;;;2.70;99.90;;;;;;5050392;28;20169;-80
2023/01/24 07:37:39;;;;;;;10.83;6.77;;;2.70;99.90;;;;;;5041926;28;20525;-80
2023/01/24 07:40:05;;;;;;;10.90;7.47;;;2.70;99.90;;;;;;5040008;28;20183;-81
2023/01/24 07:42:30;;;;;;;10.70;7.30;;;2.70;99.90;;;;;;5041984;28;20195;-79
2023/01/24 07:44:56;;;;;;;10.30;6.83;;;2.80;99.90;;;;;;5040192;28;20180;-80
2023/01/24 07:47:23;;;;;;;8.37;5.97;;;2.70;99.90;;;;;;5057136;28;20180;-79
2023/01/24 07:49:48;;;;;;;9.63;6.90;;;2.70;99.90;;;;;;5041173;28;20178;-80
2023/01/24 07:52:14;;;;;;;9.03;7.53;;;2.70;99.90;;;;;;5057034;28;20306;-80
2023/01/24 07:54:39;;;;;;;8.50;6.80;;;2.70;99.90;;;;;;5041057;28;20259;-81
2023/01/24 07:57:05;;;;;;;9.93;7.60;;;2.70;99.90;;;;;;5041737;28;20179;-80
2023/01/24 07:59:31;;;;;;;9.10;6.67;;;2.70;99.90;;;;;;5040773;28;20173;-81
2023/01/24 08:01:56;;;;;;;9.07;6.93;;;2.70;99.90;;;;;;5041415;28;20566;-81
2023/01/24 08:04:22;;;;;;;8.90;7.00;;;2.80;99.90;;;;;;5041453;28;20648;-81
2023/01/24 08:09:32;;;;;;;7.97;6.30;;;2.80;99.90;;;;;;5041440;28;20171;-80
2023/01/24 08:11:57;;;;;;;8.90;6.77;;;2.80;99.90;;;;;;5057161;28;20232;-81
2023/01/24 08:14:23;;;;;;;8.17;6.17;;;2.80;99.90;;;;;;5042242;28;20168;-81
2023/01/24 08:16:51;;;;;;;9.13;6.40;;;2.80;99.90;;;;;;5057257;28;20177;-81
2023/01/24 08:19:17;;;;;;;9.30;6.63;;;2.80;99.90;;;;;;5041805;28;20168;-80
2023/01/24 08:21:42;;;;;;;10.03;6.37;;;2.80;99.90;;;;;;5048454;28;20200;-80
2023/01/24 08:24:08;;;;;;;9.30;6.47;;;2.80;99.90;;;;;;5058924;28;20187;-81
2023/01/24 08:26:34;;;;;;;8.37;6.50;;;2.80;99.90;;;;;;5055957;28;20331;-81
2023/01/24 08:28:59;;;;;;;9.63;6.97;;;2.90;99.90;;;;;;5070859;28;20177;-80
2023/01/24 08:31:25;;;;;;;8.57;6.03;;;2.90;99.90;;;;;;5047172;28;20219;-81
2023/01/24 08:33:51;;;;;;;8.97;6.50;;;2.90;99.90;;;;;;5057089;28;20177;-81
2023/01/24 08:36:19;;;;;;;8.07;6.47;;;2.90;99.90;;;;;;5056699;28;20176;-80
2023/01/24 08:38:45;;;;;;;8.57;6.13;;;2.90;99.90;;;;;;5041118;28;20226;-79
2023/01/24 08:41:10;;;;;;;8.20;6.83;;;2.90;99.90;;;;;;5040909;28;20200;-80
2023/01/24 08:43:36;;;;;;;10.47;6.83;;;3.00;99.90;;;;;;5041085;28;20636;-80
2023/01/24 08:46:01;;;;;;;7.90;5.77;;;3.00;99.90;;;;;;5040307;28;20180;-82
2023/01/24 08:48:28;;;;;;;8.03;6.37;;;3.30;99.90;;;;;;5055141;28;20558;-80
2023/01/24 08:50:54;;;;;;;9.23;6.70;;;3.00;99.90;;;;;;5040896;28;20742;-81
2023/01/24 08:53:19;;;;;;;9.97;6.30;;;3.00;99.90;;;;;;5040306;28;20176;-80
2023/01/24 08:55:48;;;;;;;8.53;6.03;;;3.00;99.90;;;;;;5038868;28;20234;-80
2023/01/24 08:58:14;;;;;;;7.30;5.83;;;3.00;99.90;;;;;;5056382;28;20198;-81
2023/01/24 09:00:39;;;;;;;7.47;5.70;;;3.00;99.90;;;;;;5039630;28;20230;-80
2023/01/24 09:03:05;;;;;;;7.90;5.97;;;3.00;99.90;;;;;;5040282;28;20187;-81
2023/01/24 09:05:30;;;;;;;7.80;5.43;;;3.10;99.90;;;;;;5040255;28;20180;-80
2023/01/24 09:07:57;;;;;;;8.50;6.33;;;3.00;99.90;;;;;;5038283;28;20176;-81
2023/01/24 09:10:23;;;;;;;8.83;5.63;;;3.10;99.90;;;;;;5054741;28;20234;-80
2023/01/24 09:12:48;;;;;;;8.80;5.60;;;3.10;99.90;;;;;;5039498;28;20191;-81
2023/01/24 09:15:14;;;;;;;7.47;5.97;;;3.10;99.90;;;;;;5054992;28;20173;-81
2023/01/24 09:17:39;;;;;;;8.80;6.03;;;3.10;99.90;;;;;;5054993;28;20226;-81
2023/01/24 09:20:06;;;;;;;7.77;5.77;;;3.20;99.90;;;;;;5039848;28;20195;-81
2023/01/24 09:22:32;;;;;;;10.13;5.70;;;3.20;99.90;;;;;;5038434;28;20204;-81
2023/01/24 09:24:58;;;;;;;7.57;5.80;;;3.20;99.90;;;;;;5040067;28;20176;-80
2023/01/24 09:27:23;;;;;;;7.30;5.30;;;3.20;99.90;;;;;;5039778;28;20180;-80
2023/01/24 09:29:49;;;;;;;7.23;4.90;;;3.30;99.90;;;;;;5038831;28;20176;-80
2023/01/24 09:32:16;;;;;;;5.10;4.60;;;3.30;99.90;;;;;;5042560;28;20200;-81
2023/01/24 09:34:46;;;;;;;7.37;5.57;;;3.30;99.90;;;;;;5043953;28;20700;-80
2023/01/24 09:37:15;;;;;;;7.20;5.37;;;3.40;99.90;;;;;;5058763;28;20180;-81
2023/01/24 09:39:41;;;;;;;7.40;5.07;;;3.30;99.90;;;;;;5043397;28;20226;-80
2023/01/24 09:42:43;;;;;;;6.50;4.67;;;3.40;99.90;;;;;;5043844;28;20192;-80
2023/01/24 09:45:42;;;;;;;6.77;4.87;;;3.40;99.90;;;;;;5043637;28;20168;-80
2023/01/24 09:48:15;;;;;;;6.00;4.17;;;3.40;99.90;;;;;;5043671;28;20172;-80
2023/01/24 09:50:51;;;;;;;6.67;4.93;;;3.50;99.90;;;;;;5041930;28;20171;-81
2023/01/24 09:53:22;;;;;;;7.00;4.70;;;3.50;99.90;;;;;;5043031;28;20237;-80
2023/01/24 09:55:48;;;;;;;5.37;4.13;;;3.50;99.90;;;;;;5043031;28;20160;-80
2023/01/24 09:58:30;;;;;;;6.13;4.63;;;3.50;99.90;;;;;;5042815;28;20182;-80
2023/01/24 10:00:58;;;;;;;6.10;4.50;;;3.50;99.90;;;;;;5041512;28;20287;-80
2023/01/24 10:03:24;;;;;;;6.40;4.53;;;3.50;99.90;;;;;;5043178;28;20199;-80
2023/01/24 10:05:56;;;;;;;6.07;4.40;;;3.60;99.90;;;;;;5043250;28;20176;-80
2023/01/24 10:08:39;;;;;;;6.43;4.83;;;3.60;99.90;;;;;;5042620;28;20671;-81
2023/01/24 10:11:21;;;;;;;6.90;4.93;;;3.60;99.90;;;;;;5041842;28;20207;-81
2023/01/24 10:14:05;;;;;;;5.10;4.17;;;3.60;99.90;;;;;;5043333;28;20613;-80
2023/01/24 10:17:01;;;;;;;6.97;5.07;;;3.60;99.90;;;;;;5058108;28;20173;-81
2023/01/24 10:19:30;;;;;;;5.93;4.37;;;3.60;99.90;;;;;;5043580;28;20234;-80
2023/01/24 10:22:37;;;;;;;6.40;4.83;;;3.70;99.90;;;;;;5057750;28;20726;-80
2023/01/24 10:25:32;;;;;;;6.47;4.43;;;3.70;99.90;;;;;;5043052;28;20222;-80
2023/01/24 10:28:01;;;;;;;6.27;5.10;;;3.70;99.90;;;;;;5041157;28;20191;-81
2023/01/24 10:30:33;;;;;;;6.03;4.70;;;3.70;99.90;;;;;;5059168;28;20176;-80
2023/01/24 10:33:03;;;;;;;6.23;4.67;;;3.70;99.90;;;;;;5057810;28;20176;-81
2023/01/24 10:35:42;;;;;;;7.67;4.70;;;3.70;99.90;;;;;;5042713;28;20232;-80
2023/01/24 10:38:13;;;;;;;11.60;4.60;;;3.70;99.90;;;;;;5057976;28;20220;-81
2023/01/24 10:41:14;;;;;;;7.00;5.13;;;3.70;99.90;;;;;;5043071;28;20226;-80
2023/01/24 10:43:44;;;;;;;4.97;4.47;;;3.70;99.90;;;;;;5039789;28;20227;-80
2023/01/24 10:46:46;;;;;;;6.33;5.10;;;3.80;99.90;;;;;;5042406;28;20168;-81
2023/01/24 10:49:23;;;;;;;6.87;4.53;;;3.80;99.90;;;;;;5042618;28;20164;-81
2023/01/24 10:52:12;;;;;;;5.43;4.47;;;3.80;99.90;;;;;;5057340;28;20243;-80
2023/01/24 10:54:58;;;;;;;7.60;5.33;;;3.80;99.90;;;;;;5042603;28;20655;-80
2023/01/24 10:57:24;;;;;;;5.43;4.60;;;3.80;99.90;;;;;;5060681;28;20176;-80
2023/01/24 10:59:50;;;;;;;6.83;5.20;;;3.80;99.90;;;;;;5044931;28;20194;-79
2023/01/24 11:02:24;;;;;;;5.70;4.73;;;3.80;99.90;;;;;;5045869;28;20729;-81
2023/01/24 11:05:03;;;;;;;6.37;5.17;;;3.80;99.90;;;;;;5060696;28;20176;-80
2023/01/24 11:07:40;;;;;;;6.50;5.30;;;3.90;99.90;;;;;;5061201;28;20207;-80
2023/01/24 11:10:36;;;;;;;7.87;5.07;;;3.90;99.90;;;;;;5045686;28;20531;-79
2023/01/24 11:13:23;;;;;;;7.60;5.30;;;3.90;99.90;;;;;;5041732;28;20196;-80
2023/01/24 11:15:53;;;;;;;8.33;5.30;;;3.90;99.90;;;;;;5045192;28;20278;-80
2023/01/24 11:18:24;;;;;;;7.23;5.07;;;3.90;99.90;;;;;;5045946;28;20164;-80
2023/01/24 11:21:09;;;;;;;9.33;5.40;;;3.90;99.90;;;;;;5045538;28;20214;-80
2023/01/24 11:23:35;;;;;;;6.80;5.30;;;4.00;99.90;;;;;;5046447;28;20188;-80
2023/01/24 11:26:03;;;;;;;7.87;5.20;;;4.00;99.90;;;;;;5062498;28;20627;-80
2023/01/24 11:28:34;;;;;;;6.17;4.80;;;4.00;99.90;;;;;;5047586;28;20168;-80
2023/01/24 11:31:14;;;;;;;7.33;5.90;;;4.00;99.90;;;;;;5053776;28;20191;-79
2023/01/24 11:34:07;;;;;;;5.90;5.03;;;4.10;99.90;;;;;;5070523;28;20168;-80
2023/01/24 11:36:54;;;;;;;5.53;4.63;;;4.10;99.90;;;;;;5052224;28;20161;-80
2023/01/24 11:39:36;;;;;;;7.60;5.43;;;4.10;99.90;;;;;;5051644;28;20560;-81
2023/01/24 11:42:33;;;;;;;5.83;5.07;;;4.10;99.90;;;;;;5041450;28;20207;-81
2023/01/24 11:45:21;;;;;;;7.87;5.80;;;4.00;99.90;;;;;;5044583;28;20164;-80
2023/01/24 11:48:08;;;;;;;7.47;5.33;;;4.00;99.90;;;;;;5042365;28;20344;-80
2023/01/24 11:50:57;;;;;;;6.43;5.10;;;4.10;99.90;;;;;;5058908;28;20184;-80
2023/01/24 11:54:01;;;;;;;9.17;5.17;;;4.10;99.90;;;;;;5044268;28;20628;-80
2023/01/24 11:56:45;;;;;;;7.50;5.33;;;4.00;99.90;;;;;;5034525;28;20184;-80
2023/01/24 11:59:26;;;;;;;8.53;6.23;;;4.10;99.90;;;;;;5042527;28;20172;-81
2023/01/24 12:02:26;;;;;;;7.00;5.70;;;4.10;99.90;;;;;;5059653;28;20198;-80
2023/01/24 12:04:55;;;;;;;7.73;5.10;;;4.10;99.90;;;;;;5029726;28;20199;-80
2023/01/24 12:07:26;;;;;;;7.00;5.77;;;4.20;99.90;;;;;;5043634;28;20179;-80
2023/01/24 12:10:22;;;;;;;7.17;5.40;;;4.20;99.90;;;;;;5059304;28;20192;-80
2023/01/24 12:13:21;;;;;;;7.00;5.27;;;4.20;99.90;;;;;;5022616;28;20698;-80
2023/01/24 12:15:50;;;;;;;7.90;5.37;;;4.20;99.90;;;;;;5028125;28;20710;-80
2023/01/24 12:18:15;;;;;;;7.83;5.90;;;4.20;99.90;;;;;;5044189;28;20180;-80
2023/01/24 12:20:56;;;;;;;6.70;5.47;;;4.30;99.90;;;;;;5042930;28;20786;-80
2023/01/24 12:23:33;;;;;;;9.03;5.97;;;4.30;99.90;;;;;;5043545;28;20168;-80
2023/01/24 12:26:30;;;;;;;9.77;6.57;;;4.30;99.90;;;;;;5043360;28;20164;-81
2023/01/24 12:29:12;;;;;;;7.10;5.40;;;4.30;99.90;;;;;;5042890;28;20287;-80
2023/01/24 12:31:47;;;;;;;11.67;5.77;;;4.30;99.90;;;;;;5041711;28;20679;-80
2023/01/24 12:34:54;;;;;;;9.37;5.53;;;4.30;99.90;;;;;;5057613;28;20220;-80
2023/01/24 12:37:32;;;;;;;7.73;6.23;;;4.40;99.90;;;;;;5012261;28;20662;-80
2023/01/24 12:40:13;;;;;;;7.20;5.70;;;4.40;99.90;;;;;;5043216;28;20636;-81
2023/01/24 12:42:55;;;;;;;8.47;6.67;;;4.40;99.90;;;;;;5043125;28;20199;-80
2023/01/24 12:45:29;;;;;;;7.43;5.73;;;4.40;99.90;;;;;;5057447;28;20183;-81
2023/01/24 12:48:15;;;;;;;8.43;6.17;;;4.40;99.90;;;;;;5039077;28;20180;-81
2023/01/24 12:50:51;;;;;;;8.20;6.30;;;4.40;99.90;;;;;;5042917;28;20290;-80
2023/01/24 12:53:33;;;;;;;6.63;5.83;;;4.40;99.90;;;;;;5043675;28;20167;-80
2023/01/24 12:56:08;;;;;;;8.23;5.90;;;4.40;99.90;;;;;;5040758;28;20178;-80
2023/01/24 12:58:41;;;;;;;8.60;6.33;;;4.40;99.90;;;;;;5040428;28;20170;-79
2023/01/24 13:01:49;;;;;;;7.50;5.73;;;4.40;99.90;;;;;;5056090;28;20675;-80
2023/01/24 13:04:22;;;;;;;9.67;6.47;;;4.40;99.90;;;;;;5041683;28;20187;-80
2023/01/24 13:06:56;;;;;;;10.90;6.60;;;4.50;99.90;;;;;;5041148;28;20179;-80
2023/01/24 13:09:44;;;;;;;8.23;6.43;;;4.40;99.90;;;;;;5057569;28;20241;-80
2023/01/24 13:12:19;;;;;;;6.97;5.60;;;4.40;99.90;;;;;;5057606;28;20290;-80
2023/01/24 13:14:53;;;;;;;8.17;6.30;;;4.40;99.90;;;;;;5038148;28;20212;-80
2023/01/24 13:17:21;;;;;;;10.07;6.63;;;4.40;99.90;;;;;;5041118;28;20531;-80
2023/01/24 13:20:06;;;;;;;7.30;5.93;;;4.40;99.90;;;;;;5039984;28;20176;-81
2023/01/24 13:22:44;;;;;;;8.77;7.13;;;4.40;99.90;;;;;;5039612;28;20210;-79
2023/01/24 13:25:23;;;;;;;8.70;6.57;;;4.40;99.90;;;;;;5054334;28;20180;-81
2023/01/24 13:28:05;;;;;;;8.67;6.80;;;4.30;99.90;;;;;;5038782;28;20172;-81
2023/01/24 13:30:49;;;;;;;8.43;7.37;;;4.20;99.90;;;;;;5053341;28;20257;-81
2023/01/24 13:33:23;;;;;;;7.30;6.10;;;4.30;99.90;;;;;;5053724;28;20326;-81
2023/01/24 13:35:52;;;;;;;10.27;6.73;;;4.30;99.90;;;;;;5036586;28;20293;-81
2023/01/24 13:38:39;;;;;;;8.60;6.67;;;4.30;99.90;;;;;;5038424;28;20168;-80
2023/01/24 13:41:12;;;;;;;7.80;6.63;;;4.30;99.90;;;;;;5037427;28;20207;-81
2023/01/24 13:43:46;;;;;;;8.93;6.93;;;4.20;99.90;;;;;;5038674;28;20199;-81
2023/01/24 13:46:12;;;;;;;10.83;6.57;;;4.20;99.90;;;;;;5039178;28;20174;-80
2023/01/24 13:48:40;;;;;;;7.90;6.60;;;4.20;99.90;;;;;;5038526;28;20172;-81
2023/01/24 13:51:21;;;;;;;7.07;6.37;;;4.30;99.90;;;;;;5038501;28;20282;-81